createdAt,value
2023-02-24T11:46:19.546Z,9.30
2023-02-24T11:51:19.982Z,11.10
2023-02-24T11:56:33.923Z,11.70
2023-02-24T12:01:40.516Z,12.30
2023-02-24T12:07:01.382Z,12.40
2023-02-24T12:12:02.423Z,12.30
2023-02-24T12:17:14.119Z,11.70
2023-02-24T12:22:14.589Z,11.10
2023-02-24T12:27:13.551Z,10.90
2023-02-24T12:32:41.292Z,10.70
2023-02-24T12:37:42.595Z,10.40
2023-02-24T12:42:46.082Z,10.20
2023-02-24T12:48:03.901Z,10.00
2023-02-24T12:53:16.938Z,9.90
2023-02-24T12:58:34.164Z,10.00
2023-02-24T13:03:37.680Z,10.00
2023-02-24T13:09:06.892Z,9.70
2023-02-24T13:14:31.862Z,9.60
2023-02-24T13:19:26.602Z,9.90
2023-02-24T13:24:22.756Z,10.10
2023-02-24T13:29:15.633Z,10.20
2023-02-24T13:34:42.501Z,10.30
2023-02-24T13:39:41.491Z,10.20
2023-02-24T13:44:33.817Z,10.10
2023-02-24T13:49:59.863Z,9.90
2023-02-24T13:55:09.921Z,9.60
2023-02-24T14:00:30.327Z,9.40
2023-02-24T14:05:30.019Z,9.30
2023-02-24T14:10:27.587Z,9.20
2023-02-24T14:15:24.129Z,9.10
2023-02-24T14:20:24.258Z,9.10
2023-02-24T14:25:18.252Z,9.00
2023-02-24T14:30:38.055Z,8.80
2023-02-24T14:35:34.585Z,8.60
2023-02-24T14:40:26.803Z,8.50
2023-02-24T14:45:48.424Z,8.60
2023-02-24T14:50:41.752Z,8.70
2023-02-24T14:55:38.039Z,8.80
2023-02-24T15:00:38.018Z,8.90
2023-02-24T15:05:30.377Z,8.90
2023-02-24T15:10:27.058Z,9.00
2023-02-24T15:15:21.542Z,8.90
2023-02-24T15:20:27.566Z,8.90
2023-02-24T15:25:33.709Z,8.80
2023-02-24T15:31:07.909Z,8.60
2023-02-24T15:36:01.254Z,8.60
2023-02-24T15:40:57.055Z,8.50
2023-02-24T15:45:49.381Z,8.50
2023-02-24T15:50:41.476Z,8.40
2023-02-24T15:55:33.495Z,8.30
2023-02-24T16:00:26.220Z,8.20
2023-02-24T16:05:18.312Z,8.00
2023-02-24T16:10:28.139Z,7.80
2023-02-24T16:15:27.086Z,7.70
2023-02-24T16:20:28.381Z,7.50
2023-02-24T16:25:21.913Z,7.30
2023-02-24T16:30:22.655Z,7.30
2023-02-24T16:35:15.151Z,7.10
2023-02-24T16:40:30.972Z,7.10
2023-02-24T16:45:27.186Z,7.00
2023-02-24T16:50:26.587Z,6.90
2023-02-24T16:55:19.168Z,6.80
2023-02-24T17:00:14.170Z,6.80
2023-02-24T17:05:06.713Z,6.70
2023-02-24T17:09:58.723Z,6.70
2023-02-24T17:14:50.800Z,6.70
2023-02-24T17:19:42.799Z,6.70
2023-02-24T17:24:34.870Z,6.60
2023-02-24T17:29:27.483Z,6.70
2023-02-24T17:34:21.430Z,6.60
2023-02-24T17:39:14.047Z,6.60
2023-02-24T17:44:06.542Z,6.60
2023-02-24T17:49:00.411Z,6.70
2023-02-24T17:53:54.431Z,6.60
2023-02-24T17:58:46.464Z,6.50
2023-02-24T18:03:39.022Z,6.40
2023-02-24T18:08:33.449Z,6.30
2023-02-24T18:13:26.407Z,6.30
2023-02-24T18:18:18.720Z,6.30
2023-02-24T18:23:11.918Z,6.30
2023-02-24T18:28:04.857Z,6.30
2023-02-24T18:32:57.069Z,6.20
2023-02-24T18:37:53.324Z,6.20
2023-02-24T18:42:45.618Z,6.10
2023-02-24T18:47:37.644Z,6.10
2023-02-24T18:52:29.708Z,6.10
2023-02-24T18:57:21.998Z,6.10
2023-02-24T19:02:14.091Z,6.00
2023-02-24T19:07:07.582Z,5.90
2023-02-24T19:11:59.576Z,5.80
2023-02-24T19:16:51.856Z,5.80
2023-02-24T19:21:48.497Z,5.70
2023-02-24T19:26:42.169Z,5.80
2023-02-24T19:31:34.839Z,5.80
2023-02-24T19:36:27.610Z,5.70
2023-02-24T19:41:21.366Z,5.60
2023-02-24T19:46:15.260Z,5.60
2023-02-24T19:51:18.678Z,5.60
2023-02-24T19:56:10.810Z,5.50
2023-02-24T20:01:11.771Z,5.40
2023-02-24T20:06:04.435Z,5.40
2023-02-24T20:11:01.214Z,5.20
2023-02-24T20:15:53.264Z,5.20
2023-02-24T20:20:46.544Z,5.20
2023-02-24T20:25:38.543Z,5.30
2023-02-24T20:30:30.534Z,5.30
2023-02-24T20:35:26.016Z,5.40
2023-02-24T20:40:21.621Z,5.40
2023-02-24T20:45:13.653Z,5.50
2023-02-24T20:50:08.452Z,5.50
2023-02-24T20:55:00.446Z,5.50
2023-02-24T21:00:03.017Z,5.60
2023-02-24T21:04:57.986Z,5.60
2023-02-24T21:09:51.074Z,5.60
2023-02-24T21:14:43.616Z,5.70
2023-02-24T21:19:35.636Z,5.60
2023-02-24T21:24:27.685Z,5.70
2023-02-24T21:29:19.627Z,5.70
2023-02-24T21:34:12.270Z,5.60
2023-02-24T21:39:06.335Z,5.70
2023-02-24T21:44:00.553Z,5.70
2023-02-24T21:48:57.752Z,5.70
2023-02-24T21:53:49.850Z,5.70
2023-02-24T21:58:43.789Z,5.80
2023-02-24T22:03:35.890Z,5.80
2023-02-24T22:08:27.944Z,5.80
2023-02-24T22:13:19.986Z,5.80
2023-02-24T22:18:11.973Z,5.80
2023-02-24T22:23:06.464Z,5.90
2023-02-24T22:27:58.677Z,5.90
2023-02-24T22:32:53.281Z,5.80
2023-02-24T22:37:45.361Z,5.90
2023-02-24T22:42:37.528Z,5.90
2023-02-24T22:47:29.935Z,5.90
2023-02-24T22:52:21.974Z,5.80
2023-02-24T22:57:14.307Z,5.70
2023-02-24T23:02:06.650Z,5.70
2023-02-24T23:06:58.749Z,5.70
2023-02-24T23:11:50.958Z,5.70
2023-02-24T23:16:45.272Z,5.60
2023-02-24T23:21:40.749Z,5.60
2023-02-24T23:26:35.580Z,5.70
2023-02-24T23:31:28.069Z,5.60
2023-02-24T23:36:21.255Z,5.60
2023-02-24T23:41:13.976Z,5.70
2023-02-24T23:46:08.639Z,5.60
2023-02-24T23:51:10.706Z,5.60
2023-02-24T23:56:08.778Z,5.50
